createdAt,value
2023-03-26T00:00:17.759Z,42.44
2023-03-26T00:01:17.738Z,40.18
2023-03-26T00:02:17.752Z,42.55
2023-03-26T00:03:17.742Z,42.50
2023-03-26T00:04:17.698Z,42.50
2023-03-26T00:05:17.780Z,42.50
2023-03-26T00:06:17.673Z,42.55
2023-03-26T00:07:17.657Z,42.44
2023-03-26T00:08:17.659Z,42.44
2023-03-26T00:09:17.657Z,42.50
2023-03-26T00:10:17.627Z,42.44
2023-03-26T00:11:17.609Z,42.44
2023-03-26T00:12:17.602Z,42.50
2023-03-26T00:13:17.596Z,42.50
2023-03-26T00:14:17.630Z,42.50
2023-03-26T00:15:17.590Z,42.44
2023-03-26T00:16:17.567Z,42.44
2023-03-26T00:17:17.538Z,42.50
2023-03-26T00:18:17.518Z,42.55
2023-03-26T00:19:17.509Z,42.44
2023-03-26T00:20:17.489Z,42.44
2023-03-26T00:21:17.517Z,42.50
2023-03-26T00:22:17.464Z,42.55
2023-03-26T00:23:17.463Z,42.44
2023-03-26T00:24:17.490Z,42.50
2023-03-26T00:25:17.450Z,42.50
2023-03-26T00:26:17.423Z,42.55
2023-03-26T00:27:17.401Z,42.44
2023-03-26T00:28:17.405Z,42.55
2023-03-26T00:29:17.383Z,42.50
2023-03-26T00:30:17.364Z,42.50
2023-03-26T00:31:17.461Z,42.50
2023-03-26T00:32:17.346Z,42.50
2023-03-26T00:33:17.334Z,42.61
2023-03-26T00:34:17.325Z,42.55
2023-03-26T00:35:17.299Z,42.50
2023-03-26T00:36:17.329Z,42.50
2023-03-26T00:37:17.312Z,42.55
2023-03-26T00:38:17.261Z,42.55
2023-03-26T00:39:17.258Z,42.50
2023-03-26T00:40:17.246Z,42.61
2023-03-26T00:41:17.234Z,42.50
2023-03-26T00:42:17.225Z,42.50
2023-03-26T00:43:17.208Z,42.55
2023-03-26T00:44:17.189Z,42.55
2023-03-26T00:45:17.183Z,42.55
2023-03-26T00:46:17.470Z,42.55
2023-03-26T00:47:17.161Z,42.61
2023-03-26T00:48:17.147Z,42.44
2023-03-26T00:49:17.131Z,42.55
2023-03-26T00:50:17.123Z,42.55
2023-03-26T00:51:17.110Z,42.50
2023-03-26T00:52:17.088Z,42.44
2023-03-26T00:53:17.114Z,42.55
2023-03-26T00:54:17.068Z,42.44
2023-03-26T00:55:17.072Z,42.50
2023-03-26T00:56:17.049Z,42.50
2023-03-26T00:57:28.897Z,42.50
2023-03-26T00:58:18.055Z,42.50
2023-03-26T00:59:17.044Z,42.55
2023-03-26T01:00:17.130Z,42.50
2023-03-26T01:01:17.036Z,42.55
2023-03-26T01:02:17.016Z,45.04
2023-03-26T01:03:27.462Z,42.50
2023-03-26T01:04:18.200Z,42.55
2023-03-26T01:05:16.974Z,42.50
2023-03-26T01:06:16.915Z,42.50
2023-03-26T01:07:16.893Z,42.50
2023-03-26T01:08:16.882Z,42.50
2023-03-26T01:09:16.898Z,42.50
2023-03-26T01:10:16.849Z,42.50
2023-03-26T01:11:16.843Z,42.50
2023-03-26T01:12:16.842Z,42.50
2023-03-26T01:13:16.812Z,42.50
2023-03-26T01:14:16.806Z,42.50
2023-03-26T01:15:16.811Z,42.44
2023-03-26T01:16:16.825Z,42.50
2023-03-26T01:17:16.771Z,42.44
2023-03-26T01:18:16.764Z,42.55
2023-03-26T01:19:16.749Z,42.55
2023-03-26T01:20:16.731Z,42.50
2023-03-26T01:21:16.709Z,42.55
2023-03-26T01:22:16.702Z,42.50
2023-03-26T01:23:16.699Z,42.50
2023-03-26T01:24:16.685Z,42.50
2023-03-26T01:25:16.797Z,42.55
2023-03-26T01:26:16.656Z,42.44
2023-03-26T01:27:16.645Z,42.44
2023-03-26T01:28:16.620Z,42.55
2023-03-26T01:29:16.624Z,42.44
2023-03-26T01:30:16.605Z,42.50
2023-03-26T01:31:16.585Z,42.61
2023-03-26T01:32:16.635Z,42.55
2023-03-26T01:33:16.637Z,40.18
2023-03-26T01:34:16.553Z,42.61
2023-03-26T01:35:16.543Z,42.55
2023-03-26T01:36:16.526Z,42.55
2023-03-26T01:37:16.513Z,42.61
2023-03-26T01:38:16.498Z,42.61
2023-03-26T01:39:16.488Z,42.50
2023-03-26T01:40:16.463Z,42.44
2023-03-26T01:41:16.545Z,42.50
2023-03-26T01:42:16.437Z,42.55
2023-03-26T01:43:16.442Z,42.50
2023-03-26T01:44:16.414Z,42.61
2023-03-26T01:45:16.408Z,42.44
2023-03-26T01:46:16.400Z,42.50
2023-03-26T01:47:16.386Z,42.44
2023-03-26T01:48:16.357Z,42.50
2023-03-26T01:49:16.370Z,42.50
2023-03-26T01:50:16.346Z,42.50
2023-03-26T01:51:16.330Z,42.44
2023-03-26T01:52:16.332Z,42.44
2023-03-26T01:53:16.313Z,42.50
2023-03-26T01:54:16.304Z,42.61
2023-03-26T01:55:16.295Z,42.61
2023-03-26T01:56:16.259Z,42.61
2023-03-26T01:57:16.288Z,42.55
2023-03-26T01:58:16.245Z,42.44
2023-03-26T01:59:16.224Z,42.61
2023-03-26T02:00:16.223Z,42.50
2023-03-26T02:01:16.239Z,42.61
2023-03-26T02:02:16.254Z,42.55
2023-03-26T02:03:16.340Z,42.55
2023-03-26T02:04:16.170Z,42.44
2023-03-26T02:05:16.159Z,42.61
2023-03-26T02:06:16.139Z,42.55
2023-03-26T02:07:16.117Z,42.50
2023-03-26T02:08:16.151Z,42.55
2023-03-26T02:09:16.107Z,42.50
2023-03-26T02:10:16.101Z,42.55
2023-03-26T02:11:16.608Z,42.50
2023-03-26T02:12:16.065Z,40.28
2023-03-26T02:13:16.079Z,42.50
2023-03-26T02:14:16.037Z,42.55
2023-03-26T02:15:16.022Z,42.50
2023-03-26T02:16:16.012Z,42.44
2023-03-26T02:17:15.990Z,42.44
2023-03-26T02:18:15.981Z,42.50
2023-03-26T02:19:16.239Z,42.61
2023-03-26T02:20:15.948Z,42.50
2023-03-26T02:21:15.934Z,42.61
2023-03-26T02:22:16.081Z,42.55
2023-03-26T02:23:15.920Z,42.61
2023-03-26T02:24:15.908Z,42.55
2023-03-26T02:25:15.889Z,42.55
2023-03-26T02:26:15.885Z,42.44
2023-03-26T02:27:15.861Z,42.61
2023-03-26T02:28:15.855Z,42.61
2023-03-26T02:29:15.867Z,42.55
2023-03-26T02:30:15.830Z,42.44
2023-03-26T02:31:15.847Z,42.50
2023-03-26T02:32:15.804Z,42.44
2023-03-26T02:33:15.782Z,42.50
2023-03-26T02:34:15.782Z,42.50
2023-03-26T02:35:15.853Z,42.50
2023-03-26T02:36:15.805Z,42.55
2023-03-26T02:37:15.734Z,42.61
2023-03-26T02:38:15.756Z,42.50
2023-03-26T02:39:15.706Z,42.55
2023-03-26T02:40:15.695Z,42.55
2023-03-26T02:41:15.679Z,42.61
2023-03-26T02:42:15.686Z,42.55
2023-03-26T02:43:15.656Z,42.44
2023-03-26T02:44:15.648Z,42.55
2023-03-26T02:45:15.658Z,42.55
2023-03-26T02:46:15.652Z,42.61
2023-03-26T02:47:15.609Z,42.44
2023-03-26T02:48:15.596Z,42.55
2023-03-26T02:49:15.584Z,42.55
2023-03-26T02:50:15.579Z,42.50
2023-03-26T02:51:15.550Z,42.50
2023-03-26T02:52:15.536Z,42.50
2023-03-26T02:53:15.524Z,42.61
2023-03-26T02:54:15.520Z,42.44
2023-03-26T02:55:15.503Z,42.50
2023-03-26T02:56:15.486Z,42.50
2023-03-26T02:57:15.522Z,42.44
2023-03-26T02:58:15.459Z,42.55
2023-03-26T02:59:15.452Z,42.50
2023-03-26T03:00:15.468Z,42.44
2023-03-26T03:01:15.498Z,42.50
2023-03-26T03:02:15.454Z,42.44
2023-03-26T03:03:15.414Z,40.18
2023-03-26T03:04:15.396Z,42.61
2023-03-26T03:05:15.390Z,42.50
2023-03-26T03:06:15.366Z,42.55
2023-03-26T03:07:15.346Z,42.44
2023-03-26T03:08:15.333Z,45.09
2023-03-26T03:09:15.339Z,42.55
2023-03-26T03:10:15.320Z,45.09
2023-03-26T03:11:15.302Z,42.50
2023-03-26T03:12:15.288Z,42.50
2023-03-26T03:13:15.270Z,42.55
2023-03-26T03:14:15.260Z,42.55
2023-03-26T03:15:15.241Z,42.55
2023-03-26T03:16:15.254Z,42.50
2023-03-26T03:17:15.244Z,42.44
2023-03-26T03:18:15.205Z,42.50
2023-03-26T03:19:15.203Z,42.50
2023-03-26T03:20:15.180Z,42.50
2023-03-26T03:21:15.176Z,42.55
2023-03-26T03:22:15.158Z,42.55
2023-03-26T03:23:15.152Z,42.55
2023-03-26T03:24:15.134Z,42.44
2023-03-26T03:25:15.131Z,42.55
2023-03-26T03:26:15.105Z,42.44
2023-03-26T03:27:15.103Z,42.50
2023-03-26T03:28:15.088Z,42.50
2023-03-26T03:29:15.072Z,42.50
2023-03-26T03:30:15.060Z,42.44
2023-03-26T03:31:15.091Z,42.55
2023-03-26T03:32:15.038Z,42.44
2023-03-26T03:33:15.049Z,42.44
2023-03-26T03:34:15.015Z,42.61
2023-03-26T03:35:14.998Z,42.50
2023-03-26T03:36:20.552Z,42.44
2023-03-26T03:37:16.002Z,42.61
2023-03-26T03:38:14.955Z,42.61
2023-03-26T03:39:14.946Z,42.61
2023-03-26T03:40:14.937Z,42.50
2023-03-26T03:41:14.928Z,42.50
2023-03-26T03:42:14.930Z,42.50
2023-03-26T03:43:14.894Z,42.55
2023-03-26T03:44:14.885Z,42.44
2023-03-26T03:45:14.885Z,42.50
2023-03-26T03:46:14.904Z,42.55
2023-03-26T03:47:14.842Z,42.50
2023-03-26T03:48:14.835Z,42.55
2023-03-26T03:49:14.853Z,42.44
2023-03-26T03:50:14.806Z,42.50
2023-03-26T03:51:14.790Z,42.50
2023-03-26T03:52:14.780Z,42.55
2023-03-26T03:53:14.778Z,42.50
2023-03-26T03:54:14.758Z,42.55
2023-03-26T03:55:14.752Z,42.50
2023-03-26T03:56:14.782Z,42.44
2023-03-26T03:57:14.724Z,42.55
2023-03-26T03:58:14.716Z,42.50
2023-03-26T03:59:14.697Z,42.50
2023-03-26T04:00:14.681Z,42.55
2023-03-26T04:01:14.675Z,42.50
2023-03-26T04:02:14.672Z,42.50
2023-03-26T04:03:14.750Z,42.44
2023-03-26T04:04:14.659Z,42.50
2023-03-26T04:05:14.662Z,42.61
2023-03-26T04:06:14.623Z,42.50
2023-03-26T04:07:14.587Z,42.50
2023-03-26T04:08:14.583Z,42.55
2023-03-26T04:09:14.569Z,42.61
2023-03-26T04:10:14.559Z,42.44
2023-03-26T04:11:14.556Z,42.44
2023-03-26T04:12:14.526Z,42.50
2023-03-26T04:13:14.515Z,42.55
2023-03-26T04:14:14.503Z,42.50
2023-03-26T04:15:14.509Z,42.44
2023-03-26T04:16:14.515Z,42.50
2023-03-26T04:17:14.475Z,42.50
2023-03-26T04:18:14.465Z,42.55
2023-03-26T04:19:14.449Z,42.50
2023-03-26T04:20:14.420Z,42.44
2023-03-26T04:21:14.542Z,42.44
2023-03-26T04:22:14.404Z,42.50
2023-03-26T04:23:14.386Z,42.55
2023-03-26T04:24:14.378Z,42.50
2023-03-26T04:25:14.358Z,42.44
2023-03-26T04:26:14.353Z,42.55
2023-03-26T04:27:14.329Z,42.55
2023-03-26T04:28:14.317Z,42.50
2023-03-26T04:29:14.312Z,42.44
2023-03-26T04:30:14.290Z,42.44
2023-03-26T04:31:14.314Z,42.55
2023-03-26T04:32:14.286Z,42.66
2023-03-26T04:33:14.255Z,42.50
2023-03-26T04:34:14.276Z,42.44
2023-03-26T04:35:14.237Z,42.50
2023-03-26T04:36:14.216Z,42.44
2023-03-26T04:37:14.236Z,42.44
2023-03-26T04:38:14.199Z,42.55
2023-03-26T04:39:14.186Z,42.50
2023-03-26T04:40:14.173Z,42.44
2023-03-26T04:41:14.197Z,42.55
2023-03-26T04:42:14.139Z,42.50
2023-03-26T04:43:14.141Z,42.50
2023-03-26T04:44:14.124Z,42.55
2023-03-26T04:45:14.102Z,42.44
2023-03-26T04:46:14.154Z,42.50
2023-03-26T04:47:14.088Z,42.44
2023-03-26T04:48:14.064Z,42.44
2023-03-26T04:49:14.056Z,42.55
2023-03-26T04:50:14.039Z,42.55
2023-03-26T04:51:14.035Z,42.50
2023-03-26T04:52:14.012Z,42.50
2023-03-26T04:53:14.041Z,42.55
2023-03-26T04:54:14.001Z,42.61
2023-03-26T04:55:13.974Z,42.50
2023-03-26T04:56:13.958Z,42.55
2023-03-26T04:57:13.980Z,42.55
2023-03-26T04:58:14.004Z,42.50
2023-03-26T04:59:13.923Z,42.44
2023-03-26T05:00:13.920Z,42.50
2023-03-26T05:01:13.999Z,42.55
2023-03-26T05:02:13.892Z,42.50
2023-03-26T05:03:13.875Z,42.44
2023-03-26T05:04:13.878Z,42.50
2023-03-26T05:05:13.857Z,42.55
2023-03-26T05:06:13.840Z,42.50
2023-03-26T05:07:13.821Z,42.61
2023-03-26T05:08:13.809Z,42.55
2023-03-26T05:09:13.832Z,42.55
2023-03-26T05:10:13.782Z,42.55
2023-03-26T05:11:13.777Z,42.55
2023-03-26T05:12:13.771Z,42.50
2023-03-26T05:13:13.763Z,42.50
2023-03-26T05:14:13.732Z,42.55
2023-03-26T05:15:13.759Z,42.55
2023-03-26T05:16:13.750Z,42.55
2023-03-26T05:17:13.707Z,42.50
2023-03-26T05:18:13.693Z,42.44
2023-03-26T05:19:13.671Z,42.55
2023-03-26T05:20:13.661Z,42.50
2023-03-26T05:21:13.647Z,42.50
2023-03-26T05:22:13.636Z,42.55
2023-03-26T05:23:13.622Z,42.50
2023-03-26T05:24:13.614Z,42.44
2023-03-26T05:25:13.609Z,42.44
2023-03-26T05:26:13.578Z,42.55
2023-03-26T05:27:13.562Z,42.55
2023-03-26T05:28:13.552Z,42.55
2023-03-26T05:29:13.545Z,42.61
2023-03-26T05:30:13.534Z,42.50
2023-03-26T05:31:13.519Z,42.50
2023-03-26T05:32:13.505Z,42.61
2023-03-26T05:33:13.560Z,42.50
2023-03-26T05:34:13.501Z,42.55
2023-03-26T05:35:13.470Z,42.55
2023-03-26T05:36:13.527Z,42.44
2023-03-26T05:37:13.437Z,42.50
2023-03-26T05:38:13.431Z,42.50
2023-03-26T05:39:13.412Z,42.61
2023-03-26T05:40:13.407Z,42.50
2023-03-26T05:41:13.466Z,42.50
2023-03-26T05:42:13.383Z,42.55
2023-03-26T05:43:13.358Z,42.55
2023-03-26T05:44:13.348Z,42.44
2023-03-26T05:45:13.340Z,42.55
2023-03-26T05:46:13.372Z,42.50
2023-03-26T05:47:13.321Z,42.55
2023-03-26T05:48:13.298Z,42.44
2023-03-26T05:49:13.293Z,42.55
2023-03-26T05:50:13.278Z,42.55
2023-03-26T05:51:13.263Z,42.55
2023-03-26T05:52:13.247Z,42.61
2023-03-26T05:53:13.240Z,42.44
2023-03-26T05:54:13.219Z,40.18
2023-03-26T05:55:13.216Z,42.50
2023-03-26T05:56:13.195Z,42.55
2023-03-26T05:57:13.284Z,42.50
2023-03-26T05:58:13.185Z,42.61
2023-03-26T05:59:13.162Z,42.50
2023-03-26T06:00:13.150Z,42.50
2023-03-26T06:01:13.131Z,42.55
2023-03-26T06:02:13.125Z,42.50
2023-03-26T06:03:13.320Z,42.50
2023-03-26T06:04:13.230Z,42.50
2023-03-26T06:05:13.076Z,42.55
2023-03-26T06:06:13.073Z,42.50
2023-03-26T06:07:13.081Z,42.50
2023-03-26T06:08:13.072Z,42.50
2023-03-26T06:09:13.035Z,42.50
2023-03-26T06:10:17.998Z,42.50
2023-03-26T06:11:13.025Z,42.50
2023-03-26T06:12:12.999Z,42.55
2023-03-26T06:13:13.006Z,42.55
2023-03-26T06:14:12.976Z,42.50
2023-03-26T06:15:12.960Z,42.55
2023-03-26T06:16:25.884Z,42.50
2023-03-26T06:17:13.982Z,42.55
2023-03-26T06:18:12.958Z,42.44
2023-03-26T06:19:12.935Z,42.50
2023-03-26T06:20:12.893Z,42.44
2023-03-26T06:21:12.881Z,42.61
2023-03-26T06:22:12.863Z,42.50
2023-03-26T06:23:12.863Z,42.50
2023-03-26T06:24:12.846Z,42.50
2023-03-26T06:25:12.851Z,42.55
2023-03-26T06:26:12.816Z,42.50
2023-03-26T06:27:12.809Z,42.61
2023-03-26T06:28:12.794Z,42.55
2023-03-26T06:29:12.796Z,42.55
2023-03-26T06:30:12.774Z,42.50
2023-03-26T06:31:12.837Z,42.50
2023-03-26T06:32:19.710Z,42.55
2023-03-26T06:33:13.749Z,42.50
2023-03-26T06:34:12.719Z,42.61
2023-03-26T06:35:12.704Z,42.55
2023-03-26T06:36:12.766Z,42.55
2023-03-26T06:37:12.669Z,42.55
2023-03-26T06:38:12.670Z,42.50
2023-03-26T06:39:12.649Z,42.50
2023-03-26T06:40:13.666Z,42.55
2023-03-26T06:41:12.626Z,42.50
2023-03-26T06:42:12.619Z,42.50
2023-03-26T06:43:12.606Z,42.55
2023-03-26T06:44:12.609Z,42.55
2023-03-26T06:45:12.618Z,42.61
2023-03-26T06:46:12.577Z,42.44
2023-03-26T06:47:12.552Z,42.50
2023-03-26T06:48:12.542Z,42.50
2023-03-26T06:49:12.520Z,42.50
2023-03-26T06:50:12.519Z,42.55
2023-03-26T06:51:12.493Z,42.55
2023-03-26T06:52:12.492Z,42.50
2023-03-26T06:53:12.480Z,42.50
2023-03-26T06:54:12.454Z,42.55
2023-03-26T06:55:12.451Z,42.50
2023-03-26T06:56:12.435Z,42.50
2023-03-26T06:57:12.485Z,42.44
2023-03-26T06:58:12.416Z,42.50
2023-03-26T06:59:12.400Z,42.55
2023-03-26T07:00:12.380Z,42.44
2023-03-26T07:01:12.473Z,42.55
2023-03-26T07:02:12.367Z,42.55
2023-03-26T07:03:12.351Z,42.50
2023-03-26T07:04:12.377Z,42.50
2023-03-26T07:05:12.325Z,42.50
2023-03-26T07:06:12.304Z,42.44
2023-03-26T07:07:12.297Z,42.50
2023-03-26T07:08:12.283Z,42.55
2023-03-26T07:09:12.273Z,42.50
2023-03-26T07:10:12.264Z,42.55
2023-03-26T07:11:12.251Z,42.55
2023-03-26T07:12:12.242Z,42.50
2023-03-26T07:13:12.224Z,42.50
2023-03-26T07:14:12.211Z,42.50
2023-03-26T07:15:12.199Z,42.55
2023-03-26T07:16:12.192Z,42.55
2023-03-26T07:17:12.193Z,42.55
2023-03-26T07:18:12.161Z,42.61
2023-03-26T07:19:12.152Z,42.55
2023-03-26T07:20:12.142Z,42.50
2023-03-26T07:21:12.114Z,42.50
2023-03-26T07:22:12.166Z,42.50
2023-03-26T07:23:12.099Z,42.55
2023-03-26T07:24:12.083Z,42.50
2023-03-26T07:25:12.072Z,42.55
2023-03-26T07:26:12.079Z,42.50
2023-03-26T07:27:12.042Z,42.44
2023-03-26T07:28:12.034Z,42.55
2023-03-26T07:29:12.023Z,42.50
2023-03-26T07:30:12.016Z,42.50
2023-03-26T07:31:11.999Z,42.50
2023-03-26T07:32:11.973Z,42.44
2023-03-26T07:33:11.993Z,42.50
2023-03-26T07:34:12.056Z,42.50
2023-03-26T07:35:12.241Z,42.61
2023-03-26T07:36:11.926Z,42.44
2023-03-26T07:37:11.917Z,42.55
2023-03-26T07:38:11.896Z,42.50
2023-03-26T07:39:11.884Z,42.50
2023-03-26T07:40:11.879Z,42.55
2023-03-26T07:41:11.867Z,42.50
2023-03-26T07:42:11.851Z,42.66
2023-03-26T07:43:11.841Z,42.55
2023-03-26T07:44:11.838Z,42.61
2023-03-26T07:45:11.816Z,42.61
2023-03-26T07:46:11.819Z,42.50
2023-03-26T07:47:11.805Z,42.50
2023-03-26T07:48:11.768Z,42.61
2023-03-26T07:49:11.805Z,42.55
2023-03-26T07:50:11.760Z,42.55
2023-03-26T07:51:11.733Z,42.50
2023-03-26T07:52:11.714Z,42.50
2023-03-26T07:53:11.712Z,42.50
2023-03-26T07:54:11.699Z,42.50
2023-03-26T07:55:11.687Z,42.61
2023-03-26T07:56:11.753Z,42.55
2023-03-26T07:57:11.724Z,42.61
2023-03-26T07:58:11.668Z,42.66
2023-03-26T07:59:11.640Z,42.44
2023-03-26T08:00:11.620Z,42.55
2023-03-26T08:01:11.612Z,42.61
2023-03-26T08:02:11.598Z,42.55
2023-03-26T08:03:11.780Z,42.55
2023-03-26T08:04:24.041Z,42.55
2023-03-26T08:05:12.714Z,42.55
2023-03-26T08:06:11.546Z,42.50
2023-03-26T08:07:11.527Z,42.61
2023-03-26T08:08:11.512Z,42.55
2023-03-26T08:09:11.509Z,42.50
2023-03-26T08:10:11.497Z,42.61
2023-03-26T08:11:11.499Z,42.50
2023-03-26T08:12:11.470Z,42.44
2023-03-26T08:13:11.460Z,42.50
2023-03-26T08:14:11.444Z,42.50
2023-03-26T08:15:11.435Z,42.44
2023-03-26T08:16:11.472Z,42.55
2023-03-26T08:17:11.398Z,42.55
2023-03-26T08:18:11.424Z,42.50
2023-03-26T08:19:11.384Z,42.50
2023-03-26T08:20:11.368Z,42.55
2023-03-26T08:21:11.377Z,42.44
2023-03-26T08:22:11.331Z,42.61
2023-03-26T08:23:11.322Z,42.50
2023-03-26T08:24:11.317Z,42.50
2023-03-26T08:25:11.293Z,42.44
2023-03-26T08:26:11.307Z,42.61
2023-03-26T08:27:11.281Z,42.44
2023-03-26T08:28:11.255Z,42.50
2023-03-26T08:29:11.253Z,42.50
2023-03-26T08:30:11.229Z,42.55
2023-03-26T08:31:11.259Z,42.66
2023-03-26T08:32:11.203Z,42.50
2023-03-26T08:33:11.214Z,42.55
2023-03-26T08:34:11.179Z,42.50
2023-03-26T08:35:11.167Z,42.55
2023-03-26T08:36:11.164Z,42.50
2023-03-26T08:37:11.187Z,42.44
2023-03-26T08:38:11.141Z,42.44
2023-03-26T08:39:11.126Z,42.50
2023-03-26T08:40:11.104Z,42.55
2023-03-26T08:41:11.101Z,42.50
2023-03-26T08:42:11.080Z,42.55
2023-03-26T08:43:11.071Z,42.50
2023-03-26T08:44:11.057Z,42.44
2023-03-26T08:45:11.045Z,42.55
2023-03-26T08:46:11.109Z,42.44
2023-03-26T08:47:11.033Z,42.50
2023-03-26T08:48:11.002Z,42.55
2023-03-26T08:49:10.992Z,42.50
2023-03-26T08:50:10.993Z,42.66
2023-03-26T08:51:10.964Z,42.44
2023-03-26T08:52:10.963Z,42.55
2023-03-26T08:53:10.970Z,42.61
2023-03-26T08:54:10.932Z,42.61
2023-03-26T08:55:10.930Z,42.50
2023-03-26T08:56:10.915Z,42.50
2023-03-26T08:57:10.980Z,42.50
2023-03-26T08:58:10.890Z,42.55
2023-03-26T08:59:10.873Z,42.55
2023-03-26T09:00:10.868Z,42.55
2023-03-26T09:01:10.846Z,42.50
2023-03-26T09:02:10.901Z,42.44
2023-03-26T09:03:10.892Z,42.55
2023-03-26T09:04:10.861Z,42.44
2023-03-26T09:05:10.791Z,42.50
2023-03-26T09:06:10.774Z,42.50
2023-03-26T09:07:10.766Z,42.50
2023-03-26T09:08:10.744Z,42.50
2023-03-26T09:09:19.222Z,45.04
2023-03-26T09:10:11.762Z,42.50
2023-03-26T09:11:10.729Z,42.55
2023-03-26T09:12:10.699Z,42.44
2023-03-26T09:13:10.689Z,42.55
2023-03-26T09:14:10.673Z,42.61
2023-03-26T09:15:10.672Z,42.50
2023-03-26T09:16:10.689Z,42.55
2023-03-26T09:17:10.633Z,42.55
2023-03-26T09:18:10.643Z,42.50
2023-03-26T09:19:10.615Z,42.39
2023-03-26T09:20:10.609Z,42.55
2023-03-26T09:21:10.588Z,42.50
2023-03-26T09:22:10.572Z,45.09
2023-03-26T09:23:10.568Z,42.50
2023-03-26T09:24:10.544Z,42.61
2023-03-26T09:25:10.562Z,45.09
2023-03-26T09:26:10.526Z,45.14
2023-03-26T09:27:10.513Z,42.50
2023-03-26T09:28:10.501Z,40.12
2023-03-26T09:29:10.515Z,42.55
2023-03-26T09:30:10.485Z,42.50
2023-03-26T09:31:10.470Z,42.50
2023-03-26T09:32:10.461Z,42.44
2023-03-26T09:33:10.427Z,42.44
2023-03-26T09:34:10.417Z,44.98
2023-03-26T09:35:12.588Z,42.55
2023-03-26T09:36:10.397Z,42.50
2023-03-26T09:37:10.383Z,42.50
2023-03-26T09:38:10.375Z,45.04
2023-03-26T09:39:10.356Z,42.44
2023-03-26T09:40:10.354Z,44.17
2023-03-26T09:41:10.360Z,45.09
2023-03-26T09:42:10.333Z,42.50
2023-03-26T09:43:10.312Z,42.44
2023-03-26T09:44:10.298Z,45.04
2023-03-26T09:45:10.314Z,45.04
2023-03-26T09:46:10.292Z,42.50
2023-03-26T09:47:10.259Z,42.55
2023-03-26T09:48:10.250Z,45.09
2023-03-26T09:49:10.240Z,42.50
2023-03-26T09:50:10.221Z,42.50
2023-03-26T09:51:10.211Z,42.50
2023-03-26T09:52:10.190Z,42.61
2023-03-26T09:53:10.196Z,42.50
2023-03-26T09:54:10.170Z,42.55
2023-03-26T09:55:10.170Z,42.50
2023-03-26T09:56:10.135Z,42.50
2023-03-26T09:57:10.252Z,42.50
2023-03-26T09:58:10.178Z,45.04
2023-03-26T09:59:10.121Z,42.50
2023-03-26T10:00:10.092Z,42.50
2023-03-26T10:01:10.138Z,42.50
2023-03-26T10:02:10.071Z,44.98
2023-03-26T10:03:10.079Z,45.09
2023-03-26T10:04:10.045Z,45.14
2023-03-26T10:05:10.217Z,45.14
2023-03-26T10:06:10.018Z,42.55
2023-03-26T10:07:09.995Z,42.55
2023-03-26T10:08:09.983Z,45.04
2023-03-26T10:09:09.988Z,45.04
2023-03-26T10:10:09.979Z,42.50
2023-03-26T10:11:09.952Z,45.09
2023-03-26T10:12:09.951Z,45.04
2023-03-26T10:13:14.820Z,45.09
2023-03-26T10:14:09.917Z,45.14
2023-03-26T10:15:09.917Z,45.04
2023-03-26T10:16:09.881Z,42.55
2023-03-26T10:17:09.873Z,42.55
2023-03-26T10:18:28.108Z,45.09
2023-03-26T10:19:10.879Z,45.09
2023-03-26T10:20:09.911Z,42.55
2023-03-26T10:21:09.833Z,45.04
2023-03-26T10:22:09.820Z,45.09
2023-03-26T10:23:09.792Z,45.09
2023-03-26T10:24:09.785Z,45.04
2023-03-26T10:25:09.774Z,42.55
2023-03-26T10:26:09.760Z,45.09
2023-03-26T10:27:10.924Z,45.09
2023-03-26T10:28:09.724Z,45.09
2023-03-26T10:29:09.749Z,45.09
2023-03-26T10:30:09.713Z,45.09
2023-03-26T10:31:09.712Z,45.14
2023-03-26T10:32:09.685Z,45.14
2023-03-26T10:33:09.715Z,45.04
2023-03-26T10:34:09.656Z,45.14
2023-03-26T10:35:10.677Z,45.04
2023-03-26T10:36:09.629Z,45.04
2023-03-26T10:37:09.616Z,42.55
2023-03-26T10:38:09.599Z,45.04
2023-03-26T10:39:09.606Z,45.09
2023-03-26T10:40:09.607Z,45.09
2023-03-26T10:41:09.562Z,45.09
2023-03-26T10:42:09.542Z,45.09
2023-03-26T10:43:09.527Z,45.09
2023-03-26T10:44:09.527Z,45.09
2023-03-26T10:45:09.554Z,45.14
2023-03-26T10:46:09.527Z,45.20
2023-03-26T10:47:09.477Z,45.04
2023-03-26T10:48:09.472Z,45.14
2023-03-26T10:49:09.459Z,40.18
2023-03-26T10:50:09.498Z,45.04
2023-03-26T10:51:09.437Z,45.04
2023-03-26T10:52:09.423Z,45.04
2023-03-26T10:53:09.408Z,42.50
2023-03-26T10:54:09.403Z,45.09
2023-03-26T10:55:09.376Z,47.57
2023-03-26T10:56:09.372Z,45.04
2023-03-26T10:57:09.396Z,45.04
2023-03-26T10:58:09.345Z,45.04
2023-03-26T10:59:09.339Z,45.04
2023-03-26T11:00:09.324Z,44.98
2023-03-26T11:01:09.473Z,45.09
2023-03-26T11:02:09.288Z,45.04
2023-03-26T11:03:09.358Z,45.09
2023-03-26T11:04:09.274Z,44.93
2023-03-26T11:05:09.283Z,42.50
2023-03-26T11:06:09.242Z,42.61
2023-03-26T11:07:09.233Z,44.98
2023-03-26T11:08:09.223Z,45.14
2023-03-26T11:09:09.214Z,45.09
2023-03-26T11:10:09.203Z,45.04
2023-03-26T11:11:09.181Z,45.09
2023-03-26T11:12:27.018Z,44.98
2023-03-26T11:13:09.153Z,45.20
2023-03-26T11:14:09.151Z,45.09
2023-03-26T11:15:09.157Z,45.14
2023-03-26T11:16:09.164Z,44.98
2023-03-26T11:17:09.133Z,45.09
2023-03-26T11:18:09.125Z,45.14
2023-03-26T11:19:09.089Z,45.04
2023-03-26T11:20:09.070Z,45.14
2023-03-26T11:21:18.945Z,42.50
2023-03-26T11:22:10.074Z,45.09
2023-03-26T11:23:09.024Z,45.14
2023-03-26T11:24:09.028Z,45.04
2023-03-26T11:25:09.009Z,45.04
2023-03-26T11:26:09.014Z,45.04
2023-03-26T11:27:15.373Z,45.14
2023-03-26T11:28:10.553Z,45.09
2023-03-26T11:29:32.579Z,45.04
2023-03-26T11:30:08.947Z,45.04
2023-03-26T11:31:08.941Z,45.14
2023-03-26T11:32:08.935Z,45.09
2023-03-26T11:33:08.939Z,45.09
2023-03-26T11:34:08.900Z,45.04
2023-03-26T11:35:08.893Z,45.14
2023-03-26T11:36:08.894Z,45.09
2023-03-26T11:37:08.864Z,45.14
2023-03-26T11:38:08.852Z,44.98
2023-03-26T11:39:08.833Z,45.14
2023-03-26T11:40:08.807Z,45.09
2023-03-26T11:41:08.796Z,45.09
2023-03-26T11:42:08.800Z,45.09
2023-03-26T11:43:08.792Z,45.04
2023-03-26T11:44:08.775Z,45.09
2023-03-26T11:45:08.745Z,45.09
2023-03-26T11:46:08.756Z,45.04
2023-03-26T11:47:08.729Z,45.04
2023-03-26T11:48:08.733Z,45.09
2023-03-26T11:49:08.719Z,45.14
2023-03-26T11:50:08.689Z,45.09
2023-03-26T11:51:08.668Z,45.14
2023-03-26T11:52:08.652Z,45.04
2023-03-26T11:53:08.658Z,45.14
2023-03-26T11:54:08.643Z,45.09
2023-03-26T11:55:08.631Z,45.20
2023-03-26T11:56:08.599Z,45.04
2023-03-26T11:57:08.766Z,45.09
2023-03-26T11:58:09.754Z,45.04
2023-03-26T11:59:08.591Z,45.09
2023-03-26T12:00:08.567Z,45.09
2023-03-26T12:01:08.552Z,45.09
2023-03-26T12:02:08.554Z,45.09
2023-03-26T12:03:08.600Z,45.09
2023-03-26T12:04:08.541Z,45.04
2023-03-26T12:05:08.516Z,45.04
2023-03-26T12:06:08.493Z,45.14
2023-03-26T12:07:08.461Z,47.63
2023-03-26T12:08:08.453Z,45.09
2023-03-26T12:09:08.438Z,45.04
2023-03-26T12:10:18.019Z,45.04
2023-03-26T12:11:09.464Z,45.09
2023-03-26T12:12:08.396Z,45.04
2023-03-26T12:13:08.387Z,45.14
2023-03-26T12:14:08.366Z,45.04
2023-03-26T12:15:08.354Z,47.63
2023-03-26T12:16:08.389Z,45.04
2023-03-26T12:17:08.339Z,45.14
2023-03-26T12:18:08.312Z,45.04
2023-03-26T12:19:08.308Z,45.04
2023-03-26T12:20:08.292Z,45.09
2023-03-26T12:21:09.131Z,45.09
2023-03-26T12:22:08.282Z,45.04
2023-03-26T12:23:08.298Z,44.98
2023-03-26T12:24:08.238Z,45.09
2023-03-26T12:25:08.225Z,45.14
2023-03-26T12:26:08.208Z,45.09
2023-03-26T12:27:08.188Z,45.14
2023-03-26T12:28:08.193Z,45.09
2023-03-26T12:29:08.180Z,45.14
2023-03-26T12:30:08.172Z,45.09
2023-03-26T12:31:08.142Z,42.55
2023-03-26T12:32:08.161Z,45.04
2023-03-26T12:33:08.163Z,45.09
2023-03-26T12:34:08.187Z,45.20
2023-03-26T12:35:08.160Z,45.09
2023-03-26T12:36:08.227Z,45.09
2023-03-26T12:37:08.172Z,45.09
2023-03-26T12:38:08.099Z,45.09
2023-03-26T12:40:06.038Z,45.09
2023-03-26T12:40:13.169Z,45.04
2023-03-26T12:41:08.027Z,45.14
2023-03-26T12:44:43.637Z,45.04
2023-03-26T12:44:46.088Z,45.09
2023-03-26T12:44:53.578Z,45.04
2023-03-26T12:45:07.959Z,45.14
2023-03-26T12:47:56.337Z,45.20
2023-03-26T12:47:59.994Z,45.09
2023-03-26T12:48:09.027Z,45.04
2023-03-26T12:49:08.108Z,45.04
2023-03-26T12:50:07.955Z,45.04
2023-03-26T12:51:07.899Z,45.04
2023-03-26T12:52:09.344Z,47.63